createdAt,value
2023-04-16T00:00:38.769Z,76.28
2023-04-16T00:03:43.090Z,75.56
2023-04-16T00:06:46.988Z,75.22
2023-04-16T00:10:05.010Z,76.30
2023-04-16T00:13:09.188Z,77.73
2023-04-16T00:16:13.318Z,77.74
2023-04-16T00:19:18.419Z,76.26
2023-04-16T00:22:22.427Z,75.56
2023-04-16T00:25:26.374Z,77.01
2023-04-16T00:28:30.614Z,78.03
2023-04-16T00:31:34.849Z,77.40
2023-04-16T00:34:39.029Z,77.25
2023-04-16T00:37:42.718Z,76.80
2023-04-16T00:40:46.668Z,76.49
2023-04-16T00:43:50.828Z,77.11
2023-04-16T00:46:55.892Z,76.11
2023-04-16T00:49:59.942Z,75.20
2023-04-16T00:53:05.886Z,75.37
2023-04-16T00:56:09.911Z,75.76
2023-04-16T00:59:13.792Z,75.84
2023-04-16T01:02:17.828Z,76.88
2023-04-16T01:05:25.918Z,76.54
2023-04-16T01:08:30.034Z,75.81
2023-04-16T01:11:33.419Z,75.73
2023-04-16T01:14:37.138Z,76.28
2023-04-16T01:17:41.285Z,76.39
2023-04-16T01:20:45.444Z,76.22
2023-04-16T01:23:51.150Z,77.46
2023-04-16T01:26:55.294Z,77.37
2023-04-16T01:29:59.195Z,76.57
2023-04-16T01:33:03.538Z,75.64
2023-04-16T01:36:07.615Z,75.27
2023-04-16T01:39:11.614Z,75.48
2023-04-16T01:42:16.688Z,75.09
2023-04-16T01:45:22.268Z,74.98
2023-04-16T01:48:26.622Z,75.33
2023-04-16T01:51:32.121Z,75.69
2023-04-16T01:54:36.079Z,74.88
2023-04-16T01:57:40.325Z,74.61
2023-04-16T02:00:44.421Z,75.07
2023-04-16T02:03:49.110Z,75.32
2023-04-16T02:06:53.407Z,75.18
2023-04-16T02:09:57.222Z,76.16
2023-04-16T02:13:01.211Z,78.47
2023-04-16T02:16:05.948Z,77.63
2023-04-16T02:19:10.198Z,77.03
2023-04-16T02:22:14.984Z,75.54
2023-04-16T02:25:20.569Z,75.41
2023-04-16T02:28:26.326Z,75.97
2023-04-16T02:31:34.535Z,75.11
2023-04-16T02:34:38.640Z,76.37
2023-04-16T02:37:42.572Z,76.39
2023-04-16T02:40:46.705Z,75.60
2023-04-16T02:43:50.871Z,75.12
2023-04-16T02:46:54.812Z,74.45
2023-04-16T02:49:58.578Z,74.67
2023-04-16T02:53:02.623Z,75.27
2023-04-16T02:56:06.996Z,75.37
2023-04-16T02:59:11.411Z,75.27
2023-04-16T03:02:15.363Z,74.53
2023-04-16T03:05:19.207Z,74.57
2023-04-16T03:08:23.421Z,75.03
2023-04-16T03:11:30.353Z,77.67
2023-04-16T03:14:34.639Z,76.22
2023-04-16T03:17:43.351Z,76.94
2023-04-16T03:20:47.924Z,76.65
2023-04-16T03:23:51.735Z,78.21
2023-04-16T03:26:55.476Z,77.28
2023-04-16T03:30:00.810Z,75.28
2023-04-16T03:33:07.085Z,73.87
2023-04-16T03:36:11.015Z,73.04
2023-04-16T03:39:15.313Z,73.27
2023-04-16T03:42:19.005Z,74.13
2023-04-16T03:45:23.016Z,74.43
2023-04-16T03:48:27.205Z,74.83
2023-04-16T03:51:31.109Z,76.15
2023-04-16T03:54:35.224Z,76.23
2023-04-16T03:57:41.747Z,74.92
2023-04-16T04:00:46.895Z,74.34
2023-04-16T04:03:53.181Z,74.62
2023-04-16T04:06:59.739Z,74.65
2023-04-16T04:10:03.778Z,75.76
2023-04-16T04:13:07.911Z,75.61
2023-04-16T04:16:11.823Z,75.16
2023-04-16T04:19:15.503Z,74.88
2023-04-16T04:22:19.326Z,75.42
2023-04-16T04:25:23.489Z,75.57
2023-04-16T04:28:28.725Z,75.28
2023-04-16T04:31:32.913Z,74.60
2023-04-16T04:34:36.569Z,74.62
2023-04-16T04:37:40.728Z,74.75
2023-04-16T04:40:45.108Z,75.61
2023-04-16T04:43:48.834Z,75.20
2023-04-16T04:46:52.763Z,74.70
2023-04-16T04:49:56.644Z,74.72
2023-04-16T04:53:01.944Z,74.77
2023-04-16T04:56:12.199Z,74.66
2023-04-16T04:59:17.393Z,75.43
2023-04-16T05:02:21.845Z,74.14
2023-04-16T05:05:49.177Z,74.74
2023-04-16T05:08:53.156Z,74.70
2023-04-16T05:11:56.921Z,74.98
2023-04-16T05:15:00.807Z,74.83
2023-04-16T05:18:05.064Z,75.14
2023-04-16T05:21:12.356Z,75.14
2023-04-16T05:24:16.772Z,74.94
2023-04-16T05:27:20.898Z,74.94
2023-04-16T05:30:25.210Z,74.54
2023-04-16T05:33:29.103Z,74.56
2023-04-16T05:36:43.484Z,73.93
2023-04-16T05:39:47.477Z,73.98
2023-04-16T05:42:51.420Z,74.58
2023-04-16T05:45:55.439Z,74.59
2023-04-16T05:48:59.474Z,74.46
2023-04-16T05:52:03.476Z,74.28
2023-04-16T05:55:08.715Z,75.08
2023-04-16T05:58:12.816Z,74.77
2023-04-16T06:01:21.276Z,74.36
2023-04-16T06:04:25.453Z,74.15
2023-04-16T06:07:33.919Z,74.13
2023-04-16T06:10:38.258Z,73.64
2023-04-16T06:13:42.445Z,73.61
2023-04-16T06:16:46.094Z,73.36
2023-04-16T06:19:50.234Z,73.38
2023-04-16T06:22:55.640Z,73.31
2023-04-16T06:25:59.969Z,73.35
2023-04-16T06:29:04.087Z,74.40
2023-04-16T06:32:08.535Z,73.82
2023-04-16T06:35:13.279Z,73.48
2023-04-16T06:38:18.660Z,73.22
2023-04-16T06:41:23.765Z,72.77
2023-04-16T06:44:27.759Z,73.55
2023-04-16T06:47:40.902Z,73.22
2023-04-16T06:50:47.322Z,73.99
2023-04-16T06:53:51.255Z,72.97
2023-04-16T06:56:55.551Z,73.46
2023-04-16T07:00:00.523Z,74.42
2023-04-16T07:03:08.799Z,73.43
2023-04-16T07:06:12.622Z,72.96
2023-04-16T07:09:18.736Z,72.75
2023-04-16T07:12:23.042Z,71.77
2023-04-16T07:15:27.568Z,72.22
2023-04-16T07:18:31.417Z,71.51
2023-04-16T07:21:35.647Z,71.10
2023-04-16T07:24:39.428Z,70.98
2023-04-16T07:27:47.958Z,72.12
2023-04-16T07:30:52.028Z,71.70
2023-04-16T07:33:56.567Z,71.02
2023-04-16T07:37:00.666Z,69.91
2023-04-16T07:40:05.798Z,71.38
2023-04-16T07:43:09.968Z,71.12
2023-04-16T07:46:15.656Z,71.45
2023-04-16T07:49:19.792Z,70.88
2023-04-16T07:52:23.466Z,71.16
2023-04-16T07:55:27.365Z,69.69
2023-04-16T07:58:32.294Z,69.83
2023-04-16T08:01:36.269Z,69.87
2023-04-16T08:04:51.063Z,69.90
2023-04-16T08:07:55.270Z,70.04
2023-04-16T08:10:59.250Z,69.14
2023-04-16T08:14:03.168Z,70.17
2023-04-16T08:17:07.235Z,68.98
2023-04-16T08:20:15.043Z,68.78
2023-04-16T08:23:20.956Z,68.21
2023-04-16T08:26:25.832Z,69.14
2023-04-16T08:29:30.109Z,69.33
2023-04-16T08:32:34.736Z,69.62
2023-04-16T08:35:39.737Z,69.93
2023-04-16T08:38:43.886Z,69.17
2023-04-16T08:41:47.856Z,68.04
2023-04-16T08:44:51.917Z,66.73
2023-04-16T08:47:57.432Z,66.64
2023-04-16T08:51:03.798Z,65.96
2023-04-16T08:54:08.219Z,66.18
2023-04-16T08:57:12.039Z,68.71
2023-04-16T09:00:15.597Z,69.57
2023-04-16T09:03:20.038Z,70.56
2023-04-16T09:06:26.519Z,69.33
2023-04-16T09:09:31.575Z,70.73
2023-04-16T09:12:36.599Z,67.70
2023-04-16T09:15:40.854Z,68.57
2023-04-16T09:18:46.725Z,67.27
2023-04-16T09:21:50.668Z,66.29
2023-04-16T09:24:56.015Z,67.92
2023-04-16T09:28:01.577Z,68.29
2023-04-16T09:31:05.915Z,66.74
2023-04-16T09:34:09.522Z,67.51
2023-04-16T09:37:13.355Z,66.36
2023-04-16T09:40:18.294Z,65.65
2023-04-16T09:43:22.501Z,64.64
2023-04-16T09:46:26.717Z,65.95
2023-04-16T09:49:31.169Z,64.22
2023-04-16T09:52:37.037Z,65.78
2023-04-16T09:55:40.782Z,65.95
2023-04-16T09:58:47.592Z,66.36
2023-04-16T10:01:53.441Z,67.77
2023-04-16T10:05:20.519Z,65.87
2023-04-16T10:08:24.726Z,66.36
2023-04-16T10:11:30.724Z,64.33
2023-04-16T10:14:34.774Z,66.37
2023-04-16T10:17:38.579Z,67.14
2023-04-16T10:20:47.198Z,67.68
2023-04-16T10:23:51.312Z,68.46
2023-04-16T10:26:56.531Z,66.99
2023-04-16T10:30:00.873Z,66.06
2023-04-16T10:33:05.153Z,65.62
2023-04-16T10:36:09.442Z,64.29
2023-04-16T10:39:16.270Z,65.25
2023-04-16T10:42:20.890Z,66.32
2023-04-16T10:45:25.977Z,69.48
2023-04-16T10:48:38.568Z,69.93
2023-04-16T10:51:50.964Z,66.89
2023-04-16T10:54:54.958Z,66.67
2023-04-16T10:58:03.184Z,66.35
2023-04-16T11:01:07.352Z,66.97
2023-04-16T11:04:11.472Z,63.30
2023-04-16T11:07:15.849Z,63.54
2023-04-16T11:10:24.205Z,62.67
2023-04-16T11:13:29.539Z,64.86
2023-04-16T11:16:34.046Z,66.98
2023-04-16T11:19:38.415Z,64.13
2023-04-16T11:22:44.654Z,64.33
2023-04-16T11:25:51.506Z,62.92
2023-04-16T11:28:55.651Z,64.73
2023-04-16T11:31:59.843Z,63.63
2023-04-16T11:38:26.484Z,59.29
2023-04-16T11:41:33.589Z,57.83
2023-04-16T11:44:41.391Z,59.89
2023-04-16T11:47:52.374Z,61.93
2023-04-16T11:51:20.484Z,61.18
2023-04-16T11:54:27.119Z,57.02
2023-04-16T11:57:31.290Z,61.60
2023-04-16T12:00:36.113Z,61.96
2023-04-16T12:03:41.537Z,61.62
2023-04-16T12:06:50.793Z,59.78
2023-04-16T12:09:57.656Z,58.99
2023-04-16T12:13:03.229Z,58.71
2023-04-16T12:16:07.455Z,58.41
2023-04-16T12:19:11.455Z,57.71
2023-04-16T12:22:15.734Z,58.78
2023-04-16T12:25:19.844Z,59.22
2023-04-16T12:28:23.792Z,56.90
2023-04-16T12:31:31.918Z,55.83
2023-04-16T12:38:01.117Z,61.03
2023-04-16T12:41:05.010Z,61.32
2023-04-16T12:44:10.149Z,62.55
2023-04-16T12:47:14.516Z,61.55
2023-04-16T12:50:18.434Z,61.71
2023-04-16T12:53:22.728Z,58.90
2023-04-16T12:56:26.596Z,55.97
2023-04-16T12:59:30.539Z,60.13
2023-04-16T13:02:44.622Z,60.27
2023-04-16T13:05:52.996Z,58.16
2023-04-16T13:08:57.188Z,56.24
2023-04-16T13:12:00.946Z,54.31
2023-04-16T13:15:05.145Z,57.22
2023-04-16T13:18:16.071Z,53.63
2023-04-16T13:21:20.323Z,55.98
2023-04-16T13:24:24.322Z,54.48
2023-04-16T13:27:28.548Z,57.62
2023-04-16T13:30:32.534Z,59.36
2023-04-16T13:33:37.806Z,60.65
2023-04-16T13:36:42.838Z,59.74
2023-04-16T13:39:46.986Z,57.58
2023-04-16T13:42:50.742Z,54.99
2023-04-16T13:45:54.536Z,58.83
2023-04-16T13:48:58.293Z,55.77
2023-04-16T13:52:02.750Z,56.90
2023-04-16T13:55:06.442Z,57.74
2023-04-16T13:58:10.562Z,57.69
2023-04-16T14:01:14.746Z,55.20
2023-04-16T14:04:18.912Z,57.45
2023-04-16T14:07:23.635Z,56.85
2023-04-16T14:10:27.904Z,56.83
2023-04-16T14:13:36.959Z,56.50
2023-04-16T14:16:41.671Z,56.90
2023-04-16T14:19:47.098Z,57.17
2023-04-16T14:22:51.438Z,57.29
2023-04-16T14:25:55.513Z,58.12
2023-04-16T14:28:59.426Z,56.74
2023-04-16T14:32:03.734Z,58.90
2023-04-16T14:35:07.848Z,58.69
2023-04-16T14:38:11.989Z,61.14
2023-04-16T14:41:16.500Z,59.60
2023-04-16T14:44:21.750Z,57.64
2023-04-16T14:47:26.447Z,57.37
2023-04-16T14:50:30.747Z,59.32
2023-04-16T14:53:38.551Z,58.62
2023-04-16T14:56:42.602Z,56.16
2023-04-16T14:59:47.788Z,59.37
2023-04-16T15:02:52.283Z,56.35
2023-04-16T15:05:57.066Z,54.00
2023-04-16T15:09:01.239Z,55.45
2023-04-16T15:12:08.094Z,54.33
2023-04-16T15:15:12.019Z,54.15
2023-04-16T15:18:19.823Z,56.72
2023-04-16T15:21:28.656Z,55.34
2023-04-16T15:24:36.514Z,52.17
2023-04-16T15:27:44.900Z,51.76
2023-04-16T15:30:52.370Z,54.38
2023-04-16T15:34:01.634Z,53.61
2023-04-16T15:37:12.808Z,53.29
2023-04-16T15:40:27.716Z,54.08
2023-04-16T15:43:43.920Z,54.68
2023-04-16T15:50:08.573Z,54.82
2023-04-16T15:53:12.656Z,54.50
2023-04-16T15:56:20.315Z,55.54
2023-04-16T15:59:33.707Z,54.09
2023-04-16T16:02:38.253Z,52.93
2023-04-16T16:05:43.215Z,53.72
2023-04-16T16:22:53.496Z,55.46
2023-04-16T16:26:22.242Z,55.01
2023-04-16T16:32:58.713Z,56.87
2023-04-16T16:43:18.432Z,57.81
2023-04-16T16:54:20.585Z,55.10
2023-04-16T16:57:58.991Z,56.14
2023-04-16T17:01:37.289Z,57.80
2023-04-16T17:04:29.445Z,58.64
2023-04-16T17:14:38.378Z,59.78
2023-04-16T17:21:35.173Z,59.00
2023-04-16T17:24:40.504Z,58.72
2023-04-16T17:27:44.507Z,59.01
2023-04-16T17:30:48.286Z,58.37
2023-04-16T17:33:53.667Z,57.19
2023-04-16T17:37:04.473Z,56.86
2023-04-16T17:40:10.101Z,56.69
2023-04-16T17:43:17.473Z,56.29
2023-04-16T17:46:23.339Z,55.72
2023-04-16T17:49:27.537Z,58.22
2023-04-16T17:52:31.820Z,58.04
2023-04-16T17:55:35.867Z,58.30
2023-04-16T17:58:39.836Z,58.86
2023-04-16T18:01:47.297Z,56.86
2023-04-16T18:04:51.250Z,57.07
2023-04-16T18:07:56.913Z,59.20
2023-04-16T18:11:01.251Z,57.95
2023-04-16T18:14:07.231Z,57.17
2023-04-16T18:17:24.926Z,59.44
2023-04-16T18:20:37.396Z,58.24
2023-04-16T18:23:46.157Z,58.23
2023-04-16T18:26:53.595Z,57.49
2023-04-16T18:30:00.684Z,57.66
2023-04-16T18:36:12.079Z,57.47
2023-04-16T18:39:19.036Z,58.77
2023-04-16T18:42:23.607Z,58.46
2023-04-16T18:45:28.372Z,60.03
2023-04-16T18:48:33.728Z,59.05
2023-04-16T18:51:39.786Z,60.51
2023-04-16T18:54:45.029Z,59.02
2023-04-16T18:57:49.491Z,60.38
2023-04-16T19:00:55.060Z,59.30
2023-04-16T19:04:09.961Z,61.28
2023-04-16T19:07:14.316Z,63.49
2023-04-16T19:10:25.167Z,62.65
2023-04-16T19:13:29.223Z,61.32
2023-04-16T19:16:39.509Z,61.10
2023-04-16T19:19:44.774Z,61.34
2023-04-16T19:22:49.136Z,61.92
2023-04-16T19:25:54.997Z,61.43
2023-04-16T19:29:05.750Z,61.98
2023-04-16T19:32:12.242Z,62.37
2023-04-16T19:35:17.471Z,62.80
2023-04-16T19:38:21.816Z,62.88
2023-04-16T19:41:25.881Z,63.63
2023-04-16T19:44:31.370Z,64.88
2023-04-16T19:47:35.574Z,62.55
2023-04-16T19:50:39.817Z,62.70
2023-04-16T19:53:45.140Z,62.00
2023-04-16T19:56:50.716Z,61.66
2023-04-16T19:59:55.354Z,62.98
2023-04-16T20:03:00.572Z,63.66
2023-04-16T20:06:05.772Z,65.98
2023-04-16T20:09:12.093Z,63.72
2023-04-16T20:12:16.579Z,63.24
2023-04-16T20:15:20.787Z,64.55
2023-04-16T20:18:28.117Z,63.66
2023-04-16T20:21:32.632Z,63.12
2023-04-16T20:24:36.376Z,63.30
2023-04-16T20:27:42.337Z,63.41
2023-04-16T20:30:48.868Z,62.23
2023-04-16T20:33:52.999Z,63.64
2023-04-16T20:36:58.219Z,63.47
2023-04-16T20:40:02.830Z,63.91
2023-04-16T20:43:08.205Z,62.56
2023-04-16T20:46:12.284Z,63.12
2023-04-16T20:49:23.380Z,62.78
2023-04-16T20:52:28.413Z,62.59
2023-04-16T20:55:34.765Z,62.58
2023-04-16T20:58:38.821Z,63.15
2023-04-16T21:01:43.707Z,63.44
2023-04-16T21:04:48.066Z,62.95
2023-04-16T21:07:56.553Z,63.00
2023-04-16T21:11:01.827Z,63.18
2023-04-16T21:14:06.043Z,63.34
2023-04-16T21:17:10.007Z,64.10
2023-04-16T21:20:14.083Z,63.67
2023-04-16T21:23:18.069Z,62.72
2023-04-16T21:26:23.913Z,62.36
2023-04-16T21:29:28.191Z,62.22
2023-04-16T21:32:31.943Z,62.57
2023-04-16T21:35:35.984Z,62.38
2023-04-16T21:38:40.487Z,62.18
2023-04-16T21:41:44.469Z,62.31
2023-04-16T21:44:49.686Z,62.89
2023-04-16T21:47:53.939Z,62.33
2023-04-16T21:51:06.415Z,62.60
2023-04-16T21:54:14.654Z,62.58
2023-04-16T21:57:19.372Z,61.88
2023-04-16T22:00:23.535Z,61.97
2023-04-16T22:03:35.017Z,62.87
2023-04-16T22:06:43.065Z,62.68
2023-04-16T22:10:37.526Z,62.97
2023-04-16T22:14:19.009Z,64.47
2023-04-16T22:16:54.977Z,64.82
2023-04-16T22:20:01.414Z,64.33
2023-04-16T22:23:28.260Z,64.12
2023-04-16T22:26:34.830Z,63.48
2023-04-16T22:29:40.429Z,63.49
2023-04-16T22:33:07.118Z,62.72
2023-04-16T22:36:39.821Z,62.47
2023-04-16T22:42:59.410Z,63.83
2023-04-16T22:46:13.124Z,63.02
2023-04-16T22:49:37.239Z,64.19
2023-04-16T22:56:06.011Z,64.24
2023-04-16T22:59:21.982Z,65.47
2023-04-16T23:02:36.033Z,65.43
2023-04-16T23:09:15.522Z,66.76
2023-04-16T23:12:21.259Z,65.46
2023-04-16T23:15:29.613Z,64.76
2023-04-16T23:18:33.757Z,63.69
2023-04-16T23:21:42.142Z,63.55
2023-04-16T23:24:46.353Z,65.86
2023-04-16T23:27:51.474Z,65.37
2023-04-16T23:31:47.740Z,64.45
2023-04-16T23:38:02.100Z,64.38
2023-04-16T23:41:12.381Z,64.53
2023-04-16T23:44:17.651Z,63.83
2023-04-16T23:48:21.700Z,63.51
2023-04-16T23:50:54.474Z,62.67
2023-04-16T23:54:02.105Z,64.33
2023-04-16T23:57:06.619Z,64.36
